Weather at Idaho Falls Regional Airport

Public forecast

Using degrees Fahrenheit for public forecast. Weather courtesy of forecast.io.

Current aviation weather report (METAR) for Idaho Falls Regional Airport

Retrieved 2021/04/15 16:53 UTC (34 minutes ago):

KIDA 151653Z 02009KT 10SM BKN036 OVC046 02/M01 A3000 RMK AO2 SNB07E30 SLP173 P0000 T00221011

Aviation forecast (TAF) for Idaho Falls Regional Airport

Retrieved 2021/04/15 12:36 UTC (5 hours ago):

TAF KIDA 151133Z 1512/1612 01009KT 6SM -SN OVC015 TEMPO 1512/1514 4SM -SN BKN005 FM151400 01010KT P6SM VCSH OVC020 TEMPO 1514/1517 5SM -SN OVC015 FM151800 01011KT P6SM OVC050